Cuffley, United Kingdom
Current Conditions -  °F | °C
As of 12:50 PM on Thursday 23 Oct 2014 (Local Time) from EGGW Reporting Station
Broken Clouds Broken Clouds  
Wind Chill: 59°   Ceiling: 2100
Heat Index: 59°   Visibility: 6mi
Dew Point: 52°   Wind: 13mph
Humidity: 77%   Direction: 220°SW
Pressure: 30.09"   Gusts: NA
Location:  51.71°N, 0.11°W
Report Text: EGGW 231150Z 22011KT 9999 BKN021 15/11 Q1019
Loading
Personal Weather Stations






























Interactive Weather Map New forecast layout! Learn more

10-Day Weather Forecast

Advertisements
Track Severe Weather on mobile